createdAt,value
2023-02-11T00:01:19.192Z,2.70
2023-02-11T00:03:46.838Z,2.30
2023-02-11T00:06:14.056Z,2.40
2023-02-11T00:08:41.540Z,2.40
2023-02-11T00:11:17.030Z,2.70
2023-02-11T00:13:45.100Z,2.40
2023-02-11T00:16:20.648Z,3.10
2023-02-11T00:18:48.682Z,2.40
2023-02-11T00:21:20.033Z,2.30
2023-02-11T00:26:21.377Z,2.40
2023-02-11T00:28:50.347Z,2.70
2023-02-11T00:31:19.302Z,2.40
2023-02-11T00:33:47.082Z,2.20
2023-02-11T00:36:25.937Z,2.90
2023-02-11T00:38:55.101Z,2.40
2023-02-11T00:41:22.582Z,2.10
2023-02-11T00:43:50.947Z,2.60
2023-02-11T00:46:19.756Z,2.70
2023-02-11T00:48:47.136Z,2.10
2023-02-11T00:51:14.200Z,2.50
2023-02-11T00:53:41.826Z,2.90
2023-02-11T00:56:09.316Z,2.10
2023-02-11T00:58:37.400Z,2.60
2023-02-11T01:01:05.254Z,2.40
2023-02-11T01:03:33.039Z,2.30
2023-02-11T01:06:00.243Z,2.30
2023-02-11T01:08:27.899Z,2.10
2023-02-11T01:11:00.634Z,2.50
2023-02-11T01:13:29.175Z,2.10
2023-02-11T01:15:56.925Z,2.20
2023-02-11T01:18:25.109Z,1.80
2023-02-11T01:20:53.067Z,2.10
2023-02-11T01:23:21.049Z,2.00
2023-02-11T01:25:48.590Z,2.10
2023-02-11T01:28:21.454Z,2.10
2023-02-11T01:30:48.777Z,2.60
2023-02-11T01:33:16.236Z,2.40
2023-02-11T01:35:44.076Z,2.20
2023-02-11T01:38:17.421Z,2.00
2023-02-11T01:40:57.542Z,2.30
2023-02-11T01:43:26.578Z,1.90
2023-02-11T01:46:14.233Z,2.20
2023-02-11T01:48:45.576Z,1.80
2023-02-11T01:51:25.124Z,2.10
2023-02-11T01:54:12.680Z,2.10
2023-02-11T01:57:10.729Z,2.00
2023-02-11T01:59:43.829Z,2.10
2023-02-11T02:02:13.764Z,2.00
2023-02-11T02:05:11.788Z,2.10
2023-02-11T02:07:59.054Z,2.30
2023-02-11T02:10:28.540Z,2.30
2023-02-11T02:12:55.688Z,2.20
2023-02-11T02:15:33.356Z,2.20
2023-02-11T02:21:07.920Z,2.10
2023-02-11T02:23:34.888Z,2.50
2023-02-11T02:26:52.842Z,2.10
2023-02-11T02:29:40.602Z,1.90
2023-02-11T02:32:19.699Z,2.10
2023-02-11T02:34:49.944Z,2.10
2023-02-11T02:38:16.189Z,2.20
2023-02-11T02:40:57.420Z,2.00
2023-02-11T02:43:27.295Z,2.40
2023-02-11T02:46:10.381Z,2.00
2023-02-11T02:48:37.772Z,1.80
2023-02-11T02:51:19.633Z,1.90
2023-02-11T02:54:08.934Z,1.90
2023-02-11T02:56:55.500Z,2.30
2023-02-11T02:59:41.373Z,2.40
2023-02-11T03:02:22.230Z,2.20
2023-02-11T03:04:59.064Z,2.40
2023-02-11T03:07:40.113Z,2.10
2023-02-11T03:10:17.215Z,1.50
2023-02-11T03:12:45.126Z,2.20
2023-02-11T03:15:13.722Z,1.90
2023-02-11T03:17:45.184Z,2.30
2023-02-11T03:20:16.220Z,1.90
2023-02-11T03:22:48.704Z,1.60
2023-02-11T03:25:16.644Z,2.20
2023-02-11T03:28:03.644Z,1.90
2023-02-11T03:30:40.449Z,2.10
2023-02-11T03:33:21.404Z,2.60
2023-02-11T03:36:07.753Z,2.30
2023-02-11T03:38:49.013Z,2.30
2023-02-11T03:41:21.100Z,2.20
2023-02-11T03:43:55.830Z,2.10
2023-02-11T03:46:30.731Z,2.10
2023-02-11T03:49:08.683Z,2.20
2023-02-11T03:51:37.996Z,2.30
2023-02-11T03:54:10.933Z,2.40
2023-02-11T03:56:49.883Z,2.20
2023-02-11T03:59:17.267Z,2.00
2023-02-11T04:01:44.582Z,2.10
2023-02-11T04:04:11.962Z,2.00
2023-02-11T04:06:39.637Z,1.70
2023-02-11T04:09:06.990Z,2.70
2023-02-11T04:11:34.466Z,2.60
2023-02-11T04:14:01.425Z,2.40
2023-02-11T04:16:30.874Z,2.00
2023-02-11T04:18:58.635Z,1.90
2023-02-11T04:21:26.093Z,2.10
2023-02-11T04:23:53.229Z,2.10
2023-02-11T04:26:20.613Z,1.90
2023-02-11T04:28:47.586Z,1.80
2023-02-11T04:31:14.805Z,2.00
2023-02-11T04:33:42.036Z,1.90
2023-02-11T04:36:09.529Z,2.30
2023-02-11T04:38:36.566Z,1.90
2023-02-11T04:43:31.184Z,2.00
2023-02-11T04:45:58.984Z,2.40
2023-02-11T04:48:26.645Z,2.10
2023-02-11T04:50:53.972Z,2.20
2023-02-11T04:53:21.178Z,2.20
2023-02-11T04:55:52.264Z,2.00
2023-02-11T04:58:20.143Z,2.00
2023-02-11T05:00:47.869Z,2.20
2023-02-11T05:03:16.027Z,1.80
2023-02-11T05:05:44.139Z,1.80
2023-02-11T05:08:11.811Z,2.20
2023-02-11T05:15:34.535Z,2.20
2023-02-11T05:18:01.546Z,2.00
2023-02-11T05:20:28.974Z,2.20
2023-02-11T05:22:56.035Z,2.10
2023-02-11T05:25:23.459Z,2.00
2023-02-11T05:27:50.529Z,2.80
2023-02-11T05:30:18.132Z,2.30
2023-02-11T05:32:45.117Z,2.10
2023-02-11T05:35:12.687Z,2.30
2023-02-11T05:37:39.949Z,2.20
2023-02-11T05:40:07.780Z,2.00
2023-02-11T05:42:34.834Z,2.00
2023-02-11T05:45:02.199Z,1.90
2023-02-11T05:52:24.756Z,2.10
2023-02-11T05:54:52.298Z,1.80
2023-02-11T05:57:19.260Z,2.50
2023-02-11T06:02:14.277Z,1.90
2023-02-11T06:04:41.797Z,1.90
2023-02-11T06:07:08.812Z,1.70
2023-02-11T06:09:37.576Z,1.50
2023-02-11T06:12:05.049Z,1.80
2023-02-11T06:14:35.782Z,2.00
2023-02-11T06:17:03.002Z,1.90
2023-02-11T06:19:31.182Z,2.10
2023-02-11T06:21:58.315Z,2.00
2023-02-11T06:24:51.018Z,1.70
2023-02-11T06:27:12.867Z,2.00
2023-02-11T06:29:40.153Z,1.80
2023-02-11T06:34:43.449Z,2.00
2023-02-11T06:39:38.365Z,1.90
2023-02-11T06:42:07.892Z,1.90
2023-02-11T06:44:35.489Z,1.70
2023-02-11T06:47:02.750Z,1.90
2023-02-11T06:49:30.129Z,1.90
2023-02-11T06:51:57.199Z,2.40
2023-02-11T06:54:24.555Z,2.00
2023-02-11T06:56:51.805Z,1.90
2023-02-11T06:59:23.187Z,2.10
2023-02-11T07:04:18.143Z,2.30
2023-02-11T07:06:45.354Z,2.30
2023-02-11T07:09:12.921Z,2.10
2023-02-11T07:11:40.000Z,2.20
2023-02-11T07:14:11.029Z,4.20
2023-02-11T07:16:38.733Z,2.00
2023-02-11T07:21:33.804Z,2.40
2023-02-11T07:28:58.541Z,2.50
2023-02-11T07:31:28.613Z,2.10
2023-02-11T07:33:59.178Z,2.30
2023-02-11T07:36:27.481Z,2.20
2023-02-11T07:38:54.879Z,2.50
2023-02-11T07:41:23.519Z,2.40
2023-02-11T07:43:53.090Z,2.20
2023-02-11T07:46:26.775Z,2.40
2023-02-11T07:48:54.999Z,2.10
2023-02-11T07:51:26.061Z,2.40
2023-02-11T07:53:55.403Z,2.30
2023-02-11T07:56:23.546Z,2.50
2023-02-11T07:58:54.444Z,2.20
2023-02-11T08:01:26.055Z,2.50
2023-02-11T08:06:26.338Z,2.40
2023-02-11T08:08:53.870Z,2.20
2023-02-11T08:11:26.563Z,2.60
2023-02-11T08:13:58.164Z,2.60
2023-02-11T08:16:35.443Z,2.70
2023-02-11T08:19:06.653Z,2.40
2023-02-11T08:21:33.669Z,2.50
2023-02-11T08:24:02.478Z,2.60
2023-02-11T08:26:31.854Z,2.40
2023-02-11T08:28:59.561Z,2.80
2023-02-11T08:31:38.826Z,2.50
2023-02-11T08:34:06.597Z,2.90
2023-02-11T08:36:36.002Z,2.60
2023-02-11T08:39:18.745Z,2.80
2023-02-11T08:41:49.054Z,2.80
2023-02-11T08:44:17.721Z,2.70
2023-02-11T08:46:44.879Z,2.50
2023-02-11T08:49:12.204Z,2.90
2023-02-11T08:51:39.791Z,2.60
2023-02-11T08:54:09.580Z,2.80
2023-02-11T08:56:38.007Z,2.60
2023-02-11T08:59:06.208Z,2.50
2023-02-11T09:01:34.316Z,2.70
2023-02-11T09:04:01.649Z,2.70
2023-02-11T09:06:29.274Z,2.50
2023-02-11T09:08:57.783Z,2.90
2023-02-11T09:11:30.857Z,2.80
2023-02-11T09:13:58.780Z,2.60
2023-02-11T09:16:28.511Z,2.70
2023-02-11T09:19:00.598Z,3.50
2023-02-11T09:21:28.369Z,2.30
2023-02-11T09:23:56.350Z,2.10
2023-02-11T09:26:35.277Z,2.70
2023-02-11T09:29:03.858Z,2.90
2023-02-11T09:31:32.571Z,2.40
2023-02-11T09:34:02.630Z,3.10
2023-02-11T09:36:32.160Z,2.00
2023-02-11T09:39:04.501Z,2.70
2023-02-11T09:41:35.593Z,3.00
2023-02-11T09:44:07.459Z,2.60
2023-02-11T09:46:40.070Z,2.50
2023-02-11T09:49:15.710Z,2.50
2023-02-11T09:51:50.031Z,2.80
2023-02-11T09:54:31.671Z,3.00
2023-02-11T09:59:26.526Z,2.80
2023-02-11T10:02:02.405Z,2.80
2023-02-11T10:05:05.930Z,2.80
2023-02-11T10:07:37.310Z,2.80
2023-02-11T10:10:24.665Z,2.80
2023-02-11T10:13:21.635Z,2.80
2023-02-11T10:16:10.020Z,3.20
2023-02-11T10:18:50.626Z,2.70
2023-02-11T10:21:46.630Z,2.80
2023-02-11T10:24:16.231Z,2.90
2023-02-11T10:26:45.814Z,3.00
2023-02-11T10:29:32.655Z,3.30
2023-02-11T10:32:03.193Z,3.10
2023-02-11T10:34:32.575Z,3.50
2023-02-11T10:37:00.369Z,3.00
2023-02-11T10:39:28.593Z,3.60
2023-02-11T10:42:05.290Z,2.90
2023-02-11T10:44:37.459Z,3.10
2023-02-11T10:47:20.801Z,3.40
2023-02-11T10:49:49.046Z,3.70
2023-02-11T10:52:22.660Z,3.60
2023-02-11T10:55:09.809Z,3.90
2023-02-11T10:57:46.713Z,3.00
2023-02-11T11:00:22.912Z,3.40
2023-02-11T11:02:59.606Z,3.20
2023-02-11T11:05:32.070Z,3.40
2023-02-11T11:08:09.823Z,3.30
2023-02-11T11:10:47.061Z,3.70
2023-02-11T11:13:33.562Z,3.60
2023-02-11T11:16:12.965Z,4.50
2023-02-11T11:18:52.987Z,3.90
2023-02-11T11:21:25.400Z,4.00
2023-02-11T11:23:58.781Z,4.20
2023-02-11T11:26:43.336Z,3.60
2023-02-11T11:29:30.026Z,3.70
2023-02-11T11:32:01.291Z,3.50
2023-02-11T11:34:31.797Z,4.00
2023-02-11T11:37:00.442Z,4.00
2023-02-11T11:39:31.432Z,3.70
2023-02-11T11:42:04.330Z,4.00
2023-02-11T11:44:37.174Z,3.90
2023-02-11T11:47:29.113Z,3.80
2023-02-11T11:49:57.024Z,3.70
2023-02-11T11:52:42.930Z,3.80
2023-02-11T11:55:21.753Z,3.90
2023-02-11T11:57:51.544Z,3.80
2023-02-11T12:00:28.277Z,3.80
2023-02-11T12:03:14.301Z,4.20
2023-02-11T12:05:41.608Z,3.70
2023-02-11T12:08:36.438Z,3.90
2023-02-11T12:11:15.811Z,4.30
2023-02-11T12:13:49.536Z,3.80
2023-02-11T12:16:28.790Z,4.00
2023-02-11T12:19:26.780Z,4.40
2023-02-11T12:22:09.576Z,4.30
2023-02-11T12:25:08.642Z,4.10
2023-02-11T12:27:50.706Z,4.10
2023-02-11T12:30:36.281Z,4.00
2023-02-11T12:33:31.068Z,4.20
2023-02-11T12:36:23.972Z,4.20
2023-02-11T12:39:03.005Z,4.20
2023-02-11T12:42:21.027Z,4.00
2023-02-11T12:45:09.177Z,4.80
2023-02-11T12:48:17.474Z,4.20
2023-02-11T12:50:55.269Z,3.40
2023-02-11T12:53:59.602Z,4.50
2023-02-11T12:56:53.750Z,4.30
2023-02-11T12:59:56.640Z,4.20
2023-02-11T13:02:43.423Z,4.20
2023-02-11T13:05:27.908Z,4.30
2023-02-11T13:08:06.008Z,6.70
2023-02-11T13:10:36.900Z,4.20
2023-02-11T13:13:24.276Z,4.40
2023-02-11T13:16:16.963Z,4.20
2023-02-11T13:19:00.902Z,4.30
2023-02-11T13:21:34.652Z,4.30
2023-02-11T13:24:23.702Z,4.40
2023-02-11T13:27:07.101Z,4.30
2023-02-11T13:30:12.860Z,4.30
2023-02-11T13:32:57.866Z,4.30
2023-02-11T13:35:31.730Z,4.30
2023-02-11T13:38:22.235Z,4.20
2023-02-11T13:41:16.668Z,4.30
2023-02-11T13:43:44.584Z,4.30
2023-02-11T13:46:14.746Z,4.40
2023-02-11T13:48:53.335Z,4.40
2023-02-11T13:51:42.178Z,4.50
2023-02-11T13:54:22.563Z,4.40
2023-02-11T13:57:21.688Z,4.40
2023-02-11T14:00:11.695Z,4.40
2023-02-11T14:02:57.707Z,4.40
2023-02-11T14:05:47.553Z,4.30
2023-02-11T14:08:40.193Z,4.30
2023-02-11T14:11:29.201Z,4.40
2023-02-11T14:14:23.939Z,4.40
2023-02-11T14:17:02.495Z,4.40
2023-02-11T14:19:35.999Z,4.30
2023-02-11T14:22:11.914Z,4.50
2023-02-11T14:24:39.289Z,4.30
2023-02-11T14:27:32.868Z,4.40
2023-02-11T14:30:09.020Z,4.40
2023-02-11T14:33:02.573Z,4.40
2023-02-11T14:35:41.765Z,4.50
2023-02-11T14:38:42.367Z,4.30
2023-02-11T14:41:36.025Z,4.30
2023-02-11T14:44:19.632Z,4.40
2023-02-11T14:46:49.102Z,4.40
2023-02-11T14:49:27.081Z,4.40
2023-02-11T14:51:59.858Z,4.40
2023-02-11T14:54:28.853Z,4.40
2023-02-11T14:57:25.658Z,4.40
2023-02-11T15:00:04.393Z,4.40
2023-02-11T15:02:37.483Z,4.40
2023-02-11T15:05:26.447Z,4.40
2023-02-11T15:07:56.690Z,4.50
2023-02-11T15:10:35.167Z,4.40
2023-02-11T15:13:04.772Z,4.30
2023-02-11T15:15:33.271Z,4.40
2023-02-11T15:18:02.750Z,4.30
2023-02-11T15:20:32.401Z,4.30
2023-02-11T15:23:08.306Z,4.40
2023-02-11T15:25:44.118Z,4.40
2023-02-11T15:28:23.785Z,4.30
2023-02-11T15:31:05.380Z,4.30
2023-02-11T15:33:33.174Z,4.20
2023-02-11T15:36:02.688Z,4.30
2023-02-11T15:38:30.562Z,4.30
2023-02-11T15:41:01.050Z,4.30
2023-02-11T15:43:50.725Z,4.30
2023-02-11T15:46:21.874Z,4.30
2023-02-11T15:48:53.177Z,4.20
2023-02-11T15:51:29.515Z,4.80
2023-02-11T15:54:00.294Z,4.20
2023-02-11T15:56:43.452Z,4.40
2023-02-11T15:59:25.961Z,4.00
2023-02-11T16:01:54.788Z,4.80
2023-02-11T16:04:25.578Z,4.10
2023-02-11T16:06:55.531Z,4.30
2023-02-11T16:09:41.166Z,4.30
2023-02-11T16:12:26.419Z,4.60
2023-02-11T16:14:53.763Z,4.40
2023-02-11T16:17:29.432Z,4.70
2023-02-11T16:19:56.809Z,4.30
2023-02-11T16:22:29.988Z,4.30
2023-02-11T16:24:59.935Z,4.50
2023-02-11T16:27:32.099Z,4.60
2023-02-11T16:29:59.789Z,4.20
2023-02-11T16:32:28.753Z,4.50
2023-02-11T16:35:00.691Z,4.40
2023-02-11T16:37:27.857Z,4.50
2023-02-11T16:39:57.895Z,4.40
2023-02-11T16:42:25.244Z,4.40
2023-02-11T16:44:52.827Z,4.50
2023-02-11T16:47:25.110Z,4.50
2023-02-11T16:49:52.946Z,4.50
2023-02-11T16:52:24.378Z,4.50
2023-02-11T16:54:51.977Z,4.50
2023-02-11T16:57:23.451Z,4.50
2023-02-11T16:59:51.600Z,4.50
2023-02-11T17:02:23.793Z,4.50
2023-02-11T17:04:53.830Z,4.50
2023-02-11T17:07:21.428Z,4.50
2023-02-11T17:09:48.745Z,4.50
2023-02-11T17:12:18.656Z,4.50
2023-02-11T17:14:46.020Z,4.50
2023-02-11T17:17:13.955Z,4.60
2023-02-11T17:19:41.285Z,4.60
2023-02-11T17:22:10.744Z,4.60
2023-02-11T17:24:38.121Z,4.60
2023-02-11T17:27:05.516Z,4.60
2023-02-11T17:29:32.832Z,4.60
2023-02-11T17:32:00.262Z,4.70
2023-02-11T17:36:58.015Z,4.80
2023-02-11T17:41:56.374Z,4.90
2023-02-11T17:44:23.643Z,4.50
2023-02-11T17:46:50.922Z,4.80
2023-02-11T17:49:18.496Z,4.70
2023-02-11T17:51:45.915Z,4.60
2023-02-11T17:54:18.434Z,4.60
2023-02-11T17:56:45.800Z,4.60
2023-02-11T17:59:13.796Z,5.10
2023-02-11T18:01:42.709Z,4.70
2023-02-11T18:04:17.636Z,4.80
2023-02-11T18:06:44.793Z,4.60
2023-02-11T18:09:12.840Z,4.80
2023-02-11T18:11:40.200Z,4.60
2023-02-11T18:14:10.546Z,4.40
2023-02-11T18:16:40.358Z,4.40
2023-02-11T18:19:07.896Z,4.60
2023-02-11T18:24:07.801Z,4.60
2023-02-11T18:26:35.641Z,4.50
2023-02-11T18:29:07.075Z,4.50
2023-02-11T18:34:10.751Z,4.70
2023-02-11T18:36:37.972Z,4.70
2023-02-11T18:41:33.383Z,4.60
2023-02-11T18:44:03.017Z,4.60
2023-02-11T18:46:31.333Z,4.80
2023-02-11T18:48:59.062Z,4.50
2023-02-11T18:51:26.501Z,4.50
2023-02-11T18:53:54.660Z,4.60
2023-02-11T18:56:23.715Z,5.40
2023-02-11T18:58:52.083Z,4.60
2023-02-11T19:01:22.862Z,4.60
2023-02-11T19:06:21.049Z,4.20
2023-02-11T19:08:48.377Z,4.70
2023-02-11T19:11:17.937Z,4.80
2023-02-11T19:13:47.875Z,4.70
2023-02-11T19:18:44.634Z,4.60
2023-02-11T19:21:13.315Z,4.20
2023-02-11T19:23:40.619Z,3.80
2023-02-11T19:26:07.630Z,4.10
2023-02-11T19:28:37.073Z,4.60
2023-02-11T19:31:08.898Z,4.10
2023-02-11T19:33:36.674Z,4.30
2023-02-11T19:36:05.775Z,3.90
2023-02-11T19:38:35.170Z,4.20
2023-02-11T19:41:02.229Z,4.20
2023-02-11T19:43:29.548Z,3.80
2023-02-11T19:45:57.652Z,3.90
2023-02-11T19:50:52.915Z,3.40
2023-02-11T19:53:21.166Z,3.30
2023-02-11T19:58:17.281Z,3.30
2023-02-11T20:00:44.463Z,3.60
2023-02-11T20:03:11.907Z,3.30
2023-02-11T20:05:47.011Z,3.40
2023-02-11T20:08:17.125Z,3.10
2023-02-11T20:10:44.473Z,3.20
2023-02-11T20:13:12.081Z,3.20
2023-02-11T20:15:39.746Z,2.90
2023-02-11T20:18:07.277Z,2.90
2023-02-11T20:20:34.377Z,3.10
2023-02-11T20:23:01.636Z,2.60
2023-02-11T20:25:28.758Z,2.70
2023-02-11T20:27:58.338Z,2.90
2023-02-11T20:30:25.505Z,2.50
2023-02-11T20:32:52.898Z,2.60
2023-02-11T20:42:43.173Z,2.40
2023-02-11T20:45:10.471Z,2.90
2023-02-11T20:47:42.405Z,2.60
2023-02-11T20:50:10.038Z,2.80
2023-02-11T20:52:37.472Z,2.40
2023-02-11T20:55:04.820Z,2.60
2023-02-11T20:57:35.095Z,2.40
2023-02-11T21:00:03.123Z,2.50
2023-02-11T21:04:58.000Z,2.00
2023-02-11T21:07:28.140Z,1.70
2023-02-11T21:09:55.261Z,1.80
2023-02-11T21:12:23.054Z,1.50
2023-02-11T21:14:50.184Z,1.90
2023-02-11T21:17:17.594Z,2.10
2023-02-11T21:19:44.590Z,2.10
2023-02-11T21:22:12.251Z,1.70
2023-02-11T21:27:07.173Z,2.20
2023-02-11T21:29:45.756Z,1.60
2023-02-11T21:32:20.145Z,1.80
2023-02-11T21:34:50.199Z,1.90
2023-02-11T21:44:40.308Z,1.40
2023-02-11T21:47:10.554Z,1.50
2023-02-11T21:49:38.310Z,1.50
2023-02-11T21:52:05.772Z,1.90
2023-02-11T21:54:32.983Z,1.60
2023-02-11T21:57:03.029Z,1.30
2023-02-11T21:59:32.937Z,1.50
2023-02-11T22:02:00.387Z,2.00
2023-02-11T22:06:55.897Z,1.30
2023-02-11T22:11:50.978Z,0.90
2023-02-11T22:14:20.082Z,0.30
2023-02-11T22:21:47.693Z,1.20
2023-02-11T22:24:14.947Z,0.90
2023-02-11T22:26:44.806Z,1.50
2023-02-11T22:31:42.563Z,1.10
2023-02-11T22:34:09.655Z,1.20
2023-02-11T22:36:39.395Z,1.20
2023-02-11T22:39:11.081Z,1.80
2023-02-11T22:41:40.662Z,1.40
2023-02-11T22:51:31.607Z,1.60
2023-02-11T22:54:01.459Z,1.50
2023-02-11T22:56:30.995Z,1.50
2023-02-11T22:58:59.490Z,1.30
2023-02-11T23:01:28.456Z,1.70
2023-02-11T23:06:25.792Z,1.30
2023-02-11T23:08:52.927Z,1.30
2023-02-11T23:11:25.929Z,2.30
2023-02-11T23:13:54.028Z,1.50
2023-02-11T23:16:26.568Z,-0.30
2023-02-11T23:18:53.921Z,1.30
2023-02-11T23:21:28.078Z,1.40
2023-02-11T23:24:01.523Z,1.80
2023-02-11T23:31:27.682Z,1.70
2023-02-11T23:33:55.335Z,1.60
2023-02-11T23:36:23.661Z,1.90
2023-02-11T23:38:51.036Z,1.50
2023-02-11T23:41:19.778Z,1.70
2023-02-11T23:43:55.738Z,1.90
2023-02-11T23:46:24.111Z,1.70
2023-02-11T23:48:52.197Z,1.70
2023-02-11T23:51:20.013Z,1.60
2023-02-11T23:56:22.667Z,1.80
2023-02-11T23:58:51.272Z,1.60
